Kezdőlap
METAR-TAF:

METAR-TAF

Repülőterek :

Agadez, Niger

földrajzi szélesség: 16-58N, földrajzi hosszúság: 007-59E, magasság: 501 m

Jelenlegi meteorológiai megfigyelések

A jelentés 49 perccel ezelõtt készült, 18:00 UTC
Kelet-délkeleti szél 10 kt
Hőmérséklet 40°C
Páratartalom 7%
Légköri nyomás 1009 hPa
Látótávolság: 7000 m

METAR: DRZA 181800Z 12010KT 7000 NSC 40/M03 Q1009

Idő: 19:49 (18:49 UTC)

Előrejelzés

A jelentés 1 órával és 49 perccel ezelõtt készült, 17:00 UTC
Az előrejelzés 18-én 18 óra UTC és 19-én 18 óra UTC között érvényes
Keleti szél 10 kt
Látótávolság: 8000 m
19-én 05 óra UTC és 19-én 08 óra UTC között ideiglenes
Látótávolság: 4500 m
kiterjedt por
19-én 10 óra UTC és 19-én 12 óra UTC között fokozatosan kialakuló
Dél-délkeleti szél 10 kt

TAF: DRZA 181700Z 1818/1918 10010KT 8000 NSC TEMPO 1905/1908 4500 DU BECMG 1910/1912 16010KT

Meteorológiai megfigyelések és előrejelzések több, mint 4000 repülőtéren (METAR és TAF jelentéseket).

A térképen piros és sárga pontok jelzik az elérhető meteorológiai állomásokat.

Mozgassa az egeret a pont fölött, hogy megjelenjen az állomás neve.

Azután kattintson az időjárási megfigyelések és előrejelzések megtekintéséhez.

A térkép megváltoztatása: kattintson a fekete keresztel jelölt zöld gombra ráközelítéshez, a vonallal jelölt zöld gombra távolításhoz, vagy a zöld nyilakra a szomszédos térképek eléréséhez.


METAR-TAF: